sensor_id;sensor_type;location;lat;lon;timestamp;temperature;humidity
18717;DHT22;9487;50.892;6.906;2023-05-28T00:00:32;16.00;99.90
18717;DHT22;9487;50.892;6.906;2023-05-28T00:03:00;15.70;99.90
18717;DHT22;9487;50.892;6.906;2023-05-28T00:05:29;15.70;99.90
18717;DHT22;9487;50.892;6.906;2023-05-28T00:07:57;15.70;99.90
18717;DHT22;9487;50.892;6.906;2023-05-28T00:10:26;15.80;99.90
18717;DHT22;9487;50.892;6.906;2023-05-28T00:12:53;15.80;99.90
18717;DHT22;9487;50.892;6.906;2023-05-28T00:15:20;15.80;99.90
18717;DHT22;9487;50.892;6.906;2023-05-28T00:17:50;15.60;99.90
18717;DHT22;9487;50.892;6.906;2023-05-28T00:20:18;15.70;99.90
18717;DHT22;9487;50.892;6.906;2023-05-28T00:22:48;15.70;99.90
18717;DHT22;9487;50.892;6.906;2023-05-28T00:25:16;15.80;99.90
18717;DHT22;9487;50.892;6.906;2023-05-28T00:27:44;15.80;99.90
18717;DHT22;9487;50.892;6.906;2023-05-28T00:30:11;15.40;99.90
18717;DHT22;9487;50.892;6.906;2023-05-28T00:32:39;15.10;99.90
18717;DHT22;9487;50.892;6.906;2023-05-28T00:35:06;14.90;99.90
18717;DHT22;9487;50.892;6.906;2023-05-28T00:37:33;14.70;99.90
18717;DHT22;9487;50.892;6.906;2023-05-28T00:40:06;14.60;99.90
18717;DHT22;9487;50.892;6.906;2023-05-28T00:42:34;14.50;99.90
18717;DHT22;9487;50.892;6.906;2023-05-28T00:45:01;14.50;99.90
18717;DHT22;9487;50.892;6.906;2023-05-28T00:47:30;14.50;99.90
18717;DHT22;9487;50.892;6.906;2023-05-28T00:49:57;14.50;99.90
18717;DHT22;9487;50.892;6.906;2023-05-28T00:52:26;14.40;99.90
18717;DHT22;9487;50.892;6.906;2023-05-28T00:54:55;14.40;99.90
18717;DHT22;9487;50.892;6.906;2023-05-28T00:57:24;14.50;99.90
18717;DHT22;9487;50.892;6.906;2023-05-28T00:59:53;14.70;99.90
18717;DHT22;9487;50.892;6.906;2023-05-28T01:02:22;14.70;99.90
18717;DHT22;9487;50.892;6.906;2023-05-28T01:04:50;14.80;99.90
18717;DHT22;9487;50.892;6.906;2023-05-28T01:07:17;14.80;99.90
18717;DHT22;9487;50.892;6.906;2023-05-28T01:09:45;14.80;99.90
18717;DHT22;9487;50.892;6.906;2023-05-28T01:12:12;14.90;99.90
18717;DHT22;9487;50.892;6.906;2023-05-28T01:14:44;14.90;99.90
18717;DHT22;9487;50.892;6.906;2023-05-28T01:17:11;14.80;99.90
18717;DHT22;9487;50.892;6.906;2023-05-28T01:19:38;14.90;99.90
18717;DHT22;9487;50.892;6.906;2023-05-28T01:22:05;14.80;99.90
18717;DHT22;9487;50.892;6.906;2023-05-28T01:24:35;14.80;99.90
18717;DHT22;9487;50.892;6.906;2023-05-28T01:27:03;14.70;99.90
18717;DHT22;9487;50.892;6.906;2023-05-28T01:29:31;14.70;99.90
18717;DHT22;9487;50.892;6.906;2023-05-28T01:32:01;14.60;99.90
18717;DHT22;9487;50.892;6.906;2023-05-28T01:34:28;14.60;99.90
18717;DHT22;9487;50.892;6.906;2023-05-28T01:36:58;14.60;99.90
18717;DHT22;9487;50.892;6.906;2023-05-28T01:39:27;14.60;99.90
18717;DHT22;9487;50.892;6.906;2023-05-28T01:41:56;14.70;99.90
18717;DHT22;9487;50.892;6.906;2023-05-28T01:44:23;14.60;99.90
18717;DHT22;9487;50.892;6.906;2023-05-28T01:46:51;14.60;99.90
18717;DHT22;9487;50.892;6.906;2023-05-28T01:49:20;14.70;99.90
18717;DHT22;9487;50.892;6.906;2023-05-28T01:51:47;14.60;99.90
18717;DHT22;9487;50.892;6.906;2023-05-28T01:54:16;14.60;99.90
18717;DHT22;9487;50.892;6.906;2023-05-28T01:56:43;14.60;99.90
18717;DHT22;9487;50.892;6.906;2023-05-28T01:59:12;14.60;99.90
18717;DHT22;9487;50.892;6.906;2023-05-28T02:01:39;14.50;99.90
18717;DHT22;9487;50.892;6.906;2023-05-28T02:04:06;14.50;99.90
18717;DHT22;9487;50.892;6.906;2023-05-28T02:06:34;14.50;99.90
18717;DHT22;9487;50.892;6.906;2023-05-28T02:09:01;14.40;99.90
18717;DHT22;9487;50.892;6.906;2023-05-28T02:11:28;14.40;99.90
18717;DHT22;9487;50.892;6.906;2023-05-28T02:13:55;14.50;99.90
18717;DHT22;9487;50.892;6.906;2023-05-28T02:16:23;14.40;99.90
18717;DHT22;9487;50.892;6.906;2023-05-28T02:18:53;14.40;99.90
18717;DHT22;9487;50.892;6.906;2023-05-28T02:21:20;14.40;99.90
18717;DHT22;9487;50.892;6.906;2023-05-28T02:23:48;14.40;99.90
18717;DHT22;9487;50.892;6.906;2023-05-28T02:26:16;14.40;99.90
18717;DHT22;9487;50.892;6.906;2023-05-28T02:28:44;14.30;99.90
18717;DHT22;9487;50.892;6.906;2023-05-28T02:31:13;14.30;99.90
18717;DHT22;9487;50.892;6.906;2023-05-28T02:33:41;14.30;99.90
18717;DHT22;9487;50.892;6.906;2023-05-28T02:36:09;14.30;99.90
18717;DHT22;9487;50.892;6.906;2023-05-28T02:38:38;14.30;99.90
18717;DHT22;9487;50.892;6.906;2023-05-28T02:41:04;14.20;99.90
18717;DHT22;9487;50.892;6.906;2023-05-28T02:43:31;14.20;99.90
18717;DHT22;9487;50.892;6.906;2023-05-28T02:45:58;14.10;99.90
18717;DHT22;9487;50.892;6.906;2023-05-28T02:48:27;14.20;99.90
18717;DHT22;9487;50.892;6.906;2023-05-28T02:50:55;14.10;99.90
18717;DHT22;9487;50.892;6.906;2023-05-28T02:53:24;14.10;99.90
18717;DHT22;9487;50.892;6.906;2023-05-28T02:55:55;14.10;99.90
18717;DHT22;9487;50.892;6.906;2023-05-28T02:58:22;14.00;99.90
18717;DHT22;9487;50.892;6.906;2023-05-28T03:00:49;14.00;99.90
18717;DHT22;9487;50.892;6.906;2023-05-28T03:03:18;14.00;99.90
18717;DHT22;9487;50.892;6.906;2023-05-28T03:05:45;13.90;99.90
18717;DHT22;9487;50.892;6.906;2023-05-28T03:08:13;13.90;99.90
18717;DHT22;9487;50.892;6.906;2023-05-28T03:10:40;13.90;99.90
18717;DHT22;9487;50.892;6.906;2023-05-28T03:13:08;13.90;99.90
18717;DHT22;9487;50.892;6.906;2023-05-28T03:15:35;14.00;99.90
18717;DHT22;9487;50.892;6.906;2023-05-28T03:18:02;13.80;99.90
18717;DHT22;9487;50.892;6.906;2023-05-28T03:20:29;13.80;99.90
18717;DHT22;9487;50.892;6.906;2023-05-28T03:22:57;13.80;99.90
18717;DHT22;9487;50.892;6.906;2023-05-28T03:25:25;13.70;99.90
18717;DHT22;9487;50.892;6.906;2023-05-28T03:27:52;13.80;99.90
18717;DHT22;9487;50.892;6.906;2023-05-28T03:30:20;13.80;99.90
18717;DHT22;9487;50.892;6.906;2023-05-28T03:32:48;13.80;99.90
18717;DHT22;9487;50.892;6.906;2023-05-28T03:35:15;13.80;99.90
18717;DHT22;9487;50.892;6.906;2023-05-28T03:37:43;13.70;99.90
18717;DHT22;9487;50.892;6.906;2023-05-28T03:40:10;13.70;99.90
18717;DHT22;9487;50.892;6.906;2023-05-28T03:42:39;13.60;99.90
18717;DHT22;9487;50.892;6.906;2023-05-28T03:45:07;13.50;99.90
18717;DHT22;9487;50.892;6.906;2023-05-28T03:47:35;13.30;99.90
18717;DHT22;9487;50.892;6.906;2023-05-28T03:50:07;13.30;99.90
18717;DHT22;9487;50.892;6.906;2023-05-28T03:55:08;13.30;99.90
18717;DHT22;9487;50.892;6.906;2023-05-28T03:57:36;13.30;99.90
18717;DHT22;9487;50.892;6.906;2023-05-28T04:00:06;13.40;99.90
18717;DHT22;9487;50.892;6.906;2023-05-28T04:02:35;13.40;99.90
18717;DHT22;9487;50.892;6.906;2023-05-28T04:05:03;13.50;99.90
18717;DHT22;9487;50.892;6.906;2023-05-28T04:07:33;13.50;99.90
18717;DHT22;9487;50.892;6.906;2023-05-28T04:10:00;13.50;99.90
18717;DHT22;9487;50.892;6.906;2023-05-28T04:12:29;13.50;99.90
18717;DHT22;9487;50.892;6.906;2023-05-28T04:14:55;13.60;99.90
18717;DHT22;9487;50.892;6.906;2023-05-28T04:17:24;13.60;99.90
18717;DHT22;9487;50.892;6.906;2023-05-28T04:19:53;13.60;99.90
18717;DHT22;9487;50.892;6.906;2023-05-28T04:24:51;13.80;99.90
18717;DHT22;9487;50.892;6.906;2023-05-28T04:27:22;13.90;99.90
18717;DHT22;9487;50.892;6.906;2023-05-28T04:29:49;13.90;99.90
18717;DHT22;9487;50.892;6.906;2023-05-28T04:32:17;13.90;99.90
18717;DHT22;9487;50.892;6.906;2023-05-28T04:34:47;13.90;99.90
18717;DHT22;9487;50.892;6.906;2023-05-28T04:37:17;14.00;99.90
18717;DHT22;9487;50.892;6.906;2023-05-28T04:39:43;14.00;99.90
18717;DHT22;9487;50.892;6.906;2023-05-28T04:42:11;14.20;99.90
18717;DHT22;9487;50.892;6.906;2023-05-28T04:44:42;14.20;99.90
18717;DHT22;9487;50.892;6.906;2023-05-28T04:47:10;14.20;99.90
18717;DHT22;9487;50.892;6.906;2023-05-28T04:49:38;14.30;99.90
18717;DHT22;9487;50.892;6.906;2023-05-28T04:52:07;14.40;99.90
18717;DHT22;9487;50.892;6.906;2023-05-28T04:54:35;14.50;99.90
18717;DHT22;9487;50.892;6.906;2023-05-28T04:57:02;14.50;99.90
18717;DHT22;9487;50.892;6.906;2023-05-28T04:59:30;14.60;99.90
18717;DHT22;9487;50.892;6.906;2023-05-28T05:01:57;14.70;99.90
18717;DHT22;9487;50.892;6.906;2023-05-28T05:04:24;14.80;99.90
18717;DHT22;9487;50.892;6.906;2023-05-28T05:06:51;14.70;99.90
18717;DHT22;9487;50.892;6.906;2023-05-28T05:09:20;14.70;99.90
18717;DHT22;9487;50.892;6.906;2023-05-28T05:11:48;14.50;99.90
18717;DHT22;9487;50.892;6.906;2023-05-28T05:14:15;14.60;99.90
18717;DHT22;9487;50.892;6.906;2023-05-28T05:16:42;14.80;99.90
18717;DHT22;9487;50.892;6.906;2023-05-28T05:19:09;15.00;99.90
18717;DHT22;9487;50.892;6.906;2023-05-28T05:21:36;15.20;99.90
18717;DHT22;9487;50.892;6.906;2023-05-28T05:24:04;15.30;99.90
18717;DHT22;9487;50.892;6.906;2023-05-28T05:26:32;15.40;99.90
18717;DHT22;9487;50.892;6.906;2023-05-28T05:28:59;15.60;99.90
18717;DHT22;9487;50.892;6.906;2023-05-28T05:31:27;15.50;99.90
18717;DHT22;9487;50.892;6.906;2023-05-28T05:33:54;15.30;99.90
18717;DHT22;9487;50.892;6.906;2023-05-28T05:36:21;14.70;99.90
18717;DHT22;9487;50.892;6.906;2023-05-28T05:38:48;14.20;99.90
18717;DHT22;9487;50.892;6.906;2023-05-28T05:41:15;14.00;99.90
18717;DHT22;9487;50.892;6.906;2023-05-28T05:43:43;14.00;99.90
18717;DHT22;9487;50.892;6.906;2023-05-28T05:46:10;14.20;99.90
18717;DHT22;9487;50.892;6.906;2023-05-28T05:48:37;14.60;99.90
18717;DHT22;9487;50.892;6.906;2023-05-28T05:51:04;14.90;99.90
18717;DHT22;9487;50.892;6.906;2023-05-28T05:53:31;15.30;99.90
18717;DHT22;9487;50.892;6.906;2023-05-28T05:55:58;15.60;99.90
18717;DHT22;9487;50.892;6.906;2023-05-28T05:58:25;15.90;99.90
18717;DHT22;9487;50.892;6.906;2023-05-28T06:00:54;15.80;99.90
18717;DHT22;9487;50.892;6.906;2023-05-28T06:03:21;15.60;99.90
18717;DHT22;9487;50.892;6.906;2023-05-28T06:05:50;15.50;99.90
18717;DHT22;9487;50.892;6.906;2023-05-28T06:08:17;15.80;99.90
18717;DHT22;9487;50.892;6.906;2023-05-28T06:10:45;16.10;99.90
18717;DHT22;9487;50.892;6.906;2023-05-28T06:13:14;16.30;99.90
18717;DHT22;9487;50.892;6.906;2023-05-28T06:15:41;16.60;99.90
18717;DHT22;9487;50.892;6.906;2023-05-28T06:18:09;16.80;99.90
18717;DHT22;9487;50.892;6.906;2023-05-28T06:20:37;16.90;99.90
18717;DHT22;9487;50.892;6.906;2023-05-28T06:23:04;17.00;99.90
18717;DHT22;9487;50.892;6.906;2023-05-28T06:25:32;16.90;99.90
18717;DHT22;9487;50.892;6.906;2023-05-28T06:28:00;16.20;99.90
18717;DHT22;9487;50.892;6.906;2023-05-28T06:30:27;15.80;99.90
18717;DHT22;9487;50.892;6.906;2023-05-28T06:32:55;15.60;99.90
18717;DHT22;9487;50.892;6.906;2023-05-28T06:35:23;16.00;99.90
18717;DHT22;9487;50.892;6.906;2023-05-28T06:37:50;16.30;99.90
18717;DHT22;9487;50.892;6.906;2023-05-28T06:40:17;16.60;99.90
18717;DHT22;9487;50.892;6.906;2023-05-28T06:42:44;16.70;99.90
18717;DHT22;9487;50.892;6.906;2023-05-28T06:45:11;17.10;99.90
18717;DHT22;9487;50.892;6.906;2023-05-28T06:47:39;16.80;99.90
18717;DHT22;9487;50.892;6.906;2023-05-28T06:50:07;16.50;99.90
18717;DHT22;9487;50.892;6.906;2023-05-28T06:52:35;16.50;99.90
18717;DHT22;9487;50.892;6.906;2023-05-28T06:55:03;16.60;99.90
18717;DHT22;9487;50.892;6.906;2023-05-28T06:57:31;17.00;99.90
18717;DHT22;9487;50.892;6.906;2023-05-28T06:59:58;17.40;99.90
18717;DHT22;9487;50.892;6.906;2023-05-28T07:02:25;17.60;99.90
18717;DHT22;9487;50.892;6.906;2023-05-28T07:04:54;17.40;99.90
18717;DHT22;9487;50.892;6.906;2023-05-28T07:07:21;17.80;99.90
18717;DHT22;9487;50.892;6.906;2023-05-28T07:09:50;17.90;99.90
18717;DHT22;9487;50.892;6.906;2023-05-28T07:12:17;17.90;99.90
18717;DHT22;9487;50.892;6.906;2023-05-28T07:14:45;18.10;99.90
18717;DHT22;9487;50.892;6.906;2023-05-28T07:17:11;18.10;99.90
18717;DHT22;9487;50.892;6.906;2023-05-28T07:19:38;17.70;99.90
18717;DHT22;9487;50.892;6.906;2023-05-28T07:22:05;17.90;99.90
18717;DHT22;9487;50.892;6.906;2023-05-28T07:24:32;18.20;99.90
18717;DHT22;9487;50.892;6.906;2023-05-28T07:27:00;18.00;99.90
18717;DHT22;9487;50.892;6.906;2023-05-28T07:29:28;18.40;99.90
18717;DHT22;9487;50.892;6.906;2023-05-28T07:31:55;18.70;99.90
18717;DHT22;9487;50.892;6.906;2023-05-28T07:34:22;18.90;99.90
18717;DHT22;9487;50.892;6.906;2023-05-28T07:36:49;18.90;99.90
18717;DHT22;9487;50.892;6.906;2023-05-28T07:39:16;19.00;99.90
18717;DHT22;9487;50.892;6.906;2023-05-28T07:41:43;19.20;99.90
18717;DHT22;9487;50.892;6.906;2023-05-28T07:44:12;19.40;99.90
18717;DHT22;9487;50.892;6.906;2023-05-28T07:46:40;19.40;99.90
18717;DHT22;9487;50.892;6.906;2023-05-28T07:49:07;19.40;99.90
18717;DHT22;9487;50.892;6.906;2023-05-28T07:51:34;19.00;99.90
18717;DHT22;9487;50.892;6.906;2023-05-28T07:54:02;19.30;99.90
18717;DHT22;9487;50.892;6.906;2023-05-28T07:56:28;19.60;99.90
18717;DHT22;9487;50.892;6.906;2023-05-28T07:58:56;19.80;99.90
18717;DHT22;9487;50.892;6.906;2023-05-28T08:01:24;20.00;99.90
18717;DHT22;9487;50.892;6.906;2023-05-28T08:03:51;20.30;99.90
18717;DHT22;9487;50.892;6.906;2023-05-28T08:06:20;20.40;99.90
18717;DHT22;9487;50.892;6.906;2023-05-28T08:08:47;20.60;99.90
18717;DHT22;9487;50.892;6.906;2023-05-28T08:11:14;20.30;99.90
18717;DHT22;9487;50.892;6.906;2023-05-28T08:13:41;20.20;99.90
18717;DHT22;9487;50.892;6.906;2023-05-28T08:16:10;20.30;99.90
18717;DHT22;9487;50.892;6.906;2023-05-28T08:18:39;19.90;99.90
18717;DHT22;9487;50.892;6.906;2023-05-28T08:21:06;20.00;99.90
18717;DHT22;9487;50.892;6.906;2023-05-28T08:23:33;19.80;99.90
18717;DHT22;9487;50.892;6.906;2023-05-28T08:26:01;19.70;99.90
18717;DHT22;9487;50.892;6.906;2023-05-28T08:28:29;20.00;99.90
18717;DHT22;9487;50.892;6.906;2023-05-28T08:30:56;20.30;99.90
18717;DHT22;9487;50.892;6.906;2023-05-28T08:33:23;19.90;99.90
18717;DHT22;9487;50.892;6.906;2023-05-28T08:35:52;19.90;99.90
18717;DHT22;9487;50.892;6.906;2023-05-28T08:38:18;20.20;99.90
18717;DHT22;9487;50.892;6.906;2023-05-28T08:40:49;20.20;99.90
18717;DHT22;9487;50.892;6.906;2023-05-28T08:43:16;20.20;99.90
18717;DHT22;9487;50.892;6.906;2023-05-28T08:45:43;20.80;98.50
18717;DHT22;9487;50.892;6.906;2023-05-28T08:48:11;21.00;99.90
18717;DHT22;9487;50.892;6.906;2023-05-28T08:50:41;20.80;99.90
18717;DHT22;9487;50.892;6.906;2023-05-28T08:53:13;20.50;98.60
18717;DHT22;9487;50.892;6.906;2023-05-28T08:55:40;20.80;96.40
18717;DHT22;9487;50.892;6.906;2023-05-28T08:58:07;20.80;98.50
18717;DHT22;9487;50.892;6.906;2023-05-28T09:00:35;21.00;93.90
18717;DHT22;9487;50.892;6.906;2023-05-28T09:03:03;20.80;94.30
18717;DHT22;9487;50.892;6.906;2023-05-28T09:05:34;20.70;95.50
18717;DHT22;9487;50.892;6.906;2023-05-28T09:08:02;20.90;92.10
18717;DHT22;9487;50.892;6.906;2023-05-28T09:10:31;21.20;90.10
18717;DHT22;9487;50.892;6.906;2023-05-28T09:12:59;21.50;87.90
18717;DHT22;9487;50.892;6.906;2023-05-28T09:15:28;21.40;83.10
18717;DHT22;9487;50.892;6.906;2023-05-28T09:17:56;21.20;81.60
18717;DHT22;9487;50.892;6.906;2023-05-28T09:20:25;21.20;82.70
18717;DHT22;9487;50.892;6.906;2023-05-28T09:23:02;21.30;80.50
18717;DHT22;9487;50.892;6.906;2023-05-28T09:25:34;21.60;79.50
18717;DHT22;9487;50.892;6.906;2023-05-28T09:28:02;21.40;76.50
18717;DHT22;9487;50.892;6.906;2023-05-28T09:30:33;21.30;75.50
18717;DHT22;9487;50.892;6.906;2023-05-28T09:33:01;21.50;74.50
18717;DHT22;9487;50.892;6.906;2023-05-28T09:35:29;21.60;81.50
18717;DHT22;9487;50.892;6.906;2023-05-28T09:38:05;21.70;78.10
18717;DHT22;9487;50.892;6.906;2023-05-28T09:40:38;21.70;76.90
18717;DHT22;9487;50.892;6.906;2023-05-28T09:43:07;21.80;79.00
18717;DHT22;9487;50.892;6.906;2023-05-28T09:45:34;21.70;75.70
18717;DHT22;9487;50.892;6.906;2023-05-28T09:48:03;21.80;74.60
18717;DHT22;9487;50.892;6.906;2023-05-28T09:50:30;22.20;72.80
18717;DHT22;9487;50.892;6.906;2023-05-28T09:52:58;22.40;69.30
18717;DHT22;9487;50.892;6.906;2023-05-28T09:55:27;22.00;67.10
18717;DHT22;9487;50.892;6.906;2023-05-28T09:58:00;21.90;69.60
18717;DHT22;9487;50.892;6.906;2023-05-28T10:00:34;22.30;70.50
18717;DHT22;9487;50.892;6.906;2023-05-28T10:03:09;22.50;67.70
18717;DHT22;9487;50.892;6.906;2023-05-28T10:05:41;22.70;65.40
18717;DHT22;9487;50.892;6.906;2023-05-28T10:08:11;22.60;65.80
18717;DHT22;9487;50.892;6.906;2023-05-28T10:10:42;22.60;66.30
18717;DHT22;9487;50.892;6.906;2023-05-28T10:13:12;22.60;63.10
18717;DHT22;9487;50.892;6.906;2023-05-28T10:15:40;22.90;62.50
18717;DHT22;9487;50.892;6.906;2023-05-28T10:18:08;23.00;60.00
18717;DHT22;9487;50.892;6.906;2023-05-28T10:20:35;23.10;61.80
18717;DHT22;9487;50.892;6.906;2023-05-28T10:23:02;23.30;60.00
18717;DHT22;9487;50.892;6.906;2023-05-28T10:25:31;23.60;60.00
18717;DHT22;9487;50.892;6.906;2023-05-28T10:28:00;23.40;57.80
18717;DHT22;9487;50.892;6.906;2023-05-28T10:30:33;23.30;55.90
18717;DHT22;9487;50.892;6.906;2023-05-28T10:33:03;23.10;55.50
18717;DHT22;9487;50.892;6.906;2023-05-28T10:35:32;23.50;56.10
18717;DHT22;9487;50.892;6.906;2023-05-28T10:38:03;23.70;56.60
18717;DHT22;9487;50.892;6.906;2023-05-28T10:40:33;23.60;55.30
18717;DHT22;9487;50.892;6.906;2023-05-28T10:43:00;23.40;54.90
18717;DHT22;9487;50.892;6.906;2023-05-28T10:45:38;23.30;54.80
18717;DHT22;9487;50.892;6.906;2023-05-28T10:48:06;23.30;53.50
18717;DHT22;9487;50.892;6.906;2023-05-28T10:50:57;23.30;54.00
18717;DHT22;9487;50.892;6.906;2023-05-28T10:53:25;23.60;54.80
18717;DHT22;9487;50.892;6.906;2023-05-28T10:55:53;23.60;53.30
18717;DHT22;9487;50.892;6.906;2023-05-28T10:58:24;23.90;54.40
18717;DHT22;9487;50.892;6.906;2023-05-28T11:00:57;23.50;49.50
18717;DHT22;9487;50.892;6.906;2023-05-28T11:03:38;23.30;51.20
18717;DHT22;9487;50.892;6.906;2023-05-28T11:06:06;23.40;51.30
18717;DHT22;9487;50.892;6.906;2023-05-28T11:08:38;23.70;52.50
18717;DHT22;9487;50.892;6.906;2023-05-28T11:11:05;24.10;51.00
18717;DHT22;9487;50.892;6.906;2023-05-28T11:13:33;24.00;51.40
18717;DHT22;9487;50.892;6.906;2023-05-28T11:16:07;23.80;52.30
18717;DHT22;9487;50.892;6.906;2023-05-28T11:18:34;24.00;51.90
18717;DHT22;9487;50.892;6.906;2023-05-28T11:21:03;24.30;51.50
18717;DHT22;9487;50.892;6.906;2023-05-28T11:23:30;24.40;50.90
18717;DHT22;9487;50.892;6.906;2023-05-28T11:25:57;24.60;50.80
18717;DHT22;9487;50.892;6.906;2023-05-28T11:28:24;24.70;50.80
18717;DHT22;9487;50.892;6.906;2023-05-28T11:30:51;24.40;49.20
18717;DHT22;9487;50.892;6.906;2023-05-28T11:33:19;24.10;49.50
18717;DHT22;9487;50.892;6.906;2023-05-28T11:35:55;24.30;50.40
18717;DHT22;9487;50.892;6.906;2023-05-28T11:38:22;24.40;50.20
18717;DHT22;9487;50.892;6.906;2023-05-28T11:40:49;24.70;49.20
18717;DHT22;9487;50.892;6.906;2023-05-28T11:43:16;24.70;47.10
18717;DHT22;9487;50.892;6.906;2023-05-28T11:45:44;24.50;46.80
18717;DHT22;9487;50.892;6.906;2023-05-28T11:48:11;24.60;47.70
18717;DHT22;9487;50.892;6.906;2023-05-28T11:50:40;24.70;45.90
18717;DHT22;9487;50.892;6.906;2023-05-28T11:53:06;24.70;43.90
18717;DHT22;9487;50.892;6.906;2023-05-28T11:55:33;24.60;44.80
18717;DHT22;9487;50.892;6.906;2023-05-28T11:58:00;24.70;45.80
18717;DHT22;9487;50.892;6.906;2023-05-28T12:00:31;24.50;43.70
18717;DHT22;9487;50.892;6.906;2023-05-28T12:02:59;24.20;44.50
18717;DHT22;9487;50.892;6.906;2023-05-28T12:05:26;24.10;43.80
18717;DHT22;9487;50.892;6.906;2023-05-28T12:07:54;24.00;43.60
18717;DHT22;9487;50.892;6.906;2023-05-28T12:10:22;24.20;43.50
18717;DHT22;9487;50.892;6.906;2023-05-28T12:12:56;24.40;42.80
18717;DHT22;9487;50.892;6.906;2023-05-28T12:15:24;24.20;42.00
18717;DHT22;9487;50.892;6.906;2023-05-28T12:17:53;24.30;43.00
18717;DHT22;9487;50.892;6.906;2023-05-28T12:20:30;24.40;42.90
18717;DHT22;9487;50.892;6.906;2023-05-28T12:23:03;24.50;43.70
18717;DHT22;9487;50.892;6.906;2023-05-28T12:25:45;24.50;41.60
18717;DHT22;9487;50.892;6.906;2023-05-28T12:28:13;24.30;41.60
18717;DHT22;9487;50.892;6.906;2023-05-28T12:30:41;24.40;41.60
18717;DHT22;9487;50.892;6.906;2023-05-28T12:33:09;24.40;41.80
18717;DHT22;9487;50.892;6.906;2023-05-28T12:35:36;24.40;41.20
18717;DHT22;9487;50.892;6.906;2023-05-28T12:38:04;24.40;41.30
18717;DHT22;9487;50.892;6.906;2023-05-28T12:40:31;24.30;41.50
18717;DHT22;9487;50.892;6.906;2023-05-28T12:42:58;24.60;43.60
18717;DHT22;9487;50.892;6.906;2023-05-28T12:45:25;24.70;46.20
18717;DHT22;9487;50.892;6.906;2023-05-28T12:47:51;24.70;43.00
18717;DHT22;9487;50.892;6.906;2023-05-28T12:50:19;24.40;43.10
18717;DHT22;9487;50.892;6.906;2023-05-28T12:52:46;24.30;42.00
18717;DHT22;9487;50.892;6.906;2023-05-28T12:55:14;24.40;43.30
18717;DHT22;9487;50.892;6.906;2023-05-28T12:57:41;24.30;42.50
18717;DHT22;9487;50.892;6.906;2023-05-28T13:00:09;24.40;43.20
18717;DHT22;9487;50.892;6.906;2023-05-28T13:02:36;24.60;42.20
18717;DHT22;9487;50.892;6.906;2023-05-28T13:05:04;24.60;43.90
18717;DHT22;9487;50.892;6.906;2023-05-28T13:07:31;24.80;43.90
18717;DHT22;9487;50.892;6.906;2023-05-28T13:09:58;25.00;44.20
18717;DHT22;9487;50.892;6.906;2023-05-28T13:12:26;24.90;42.70
18717;DHT22;9487;50.892;6.906;2023-05-28T13:14:53;24.80;43.00
18717;DHT22;9487;50.892;6.906;2023-05-28T13:17:20;24.90;42.30
18717;DHT22;9487;50.892;6.906;2023-05-28T13:19:47;24.80;42.20
18717;DHT22;9487;50.892;6.906;2023-05-28T13:22:14;24.80;42.50
18717;DHT22;9487;50.892;6.906;2023-05-28T13:24:41;24.90;41.80
18717;DHT22;9487;50.892;6.906;2023-05-28T13:27:08;25.00;42.70
18717;DHT22;9487;50.892;6.906;2023-05-28T13:29:36;24.80;41.30
18717;DHT22;9487;50.892;6.906;2023-05-28T13:32:03;24.70;42.10
18717;DHT22;9487;50.892;6.906;2023-05-28T13:34:30;24.80;43.80
18717;DHT22;9487;50.892;6.906;2023-05-28T13:36:57;24.80;42.50
18717;DHT22;9487;50.892;6.906;2023-05-28T13:39:24;24.80;42.40
18717;DHT22;9487;50.892;6.906;2023-05-28T13:41:51;24.70;42.40
18717;DHT22;9487;50.892;6.906;2023-05-28T13:44:18;24.80;43.50
18717;DHT22;9487;50.892;6.906;2023-05-28T13:46:47;24.80;43.50
18717;DHT22;9487;50.892;6.906;2023-05-28T13:49:15;24.60;43.70
18717;DHT22;9487;50.892;6.906;2023-05-28T13:51:41;24.70;43.80
18717;DHT22;9487;50.892;6.906;2023-05-28T13:54:09;24.90;43.10
18717;DHT22;9487;50.892;6.906;2023-05-28T13:56:36;24.80;42.50
18717;DHT22;9487;50.892;6.906;2023-05-28T13:59:03;24.80;41.80
18717;DHT22;9487;50.892;6.906;2023-05-28T14:01:30;24.80;41.80
18717;DHT22;9487;50.892;6.906;2023-05-28T14:03:58;24.80;41.60
18717;DHT22;9487;50.892;6.906;2023-05-28T14:06:25;24.90;41.80
18717;DHT22;9487;50.892;6.906;2023-05-28T14:08:52;25.10;41.70
18717;DHT22;9487;50.892;6.906;2023-05-28T14:11:18;24.90;42.00
18717;DHT22;9487;50.892;6.906;2023-05-28T14:13:45;25.00;41.40
18717;DHT22;9487;50.892;6.906;2023-05-28T14:16:12;25.00;40.60
18717;DHT22;9487;50.892;6.906;2023-05-28T14:18:39;24.90;41.60
18717;DHT22;9487;50.892;6.906;2023-05-28T14:21:07;25.10;41.80
18717;DHT22;9487;50.892;6.906;2023-05-28T14:23:34;25.00;43.10
18717;DHT22;9487;50.892;6.906;2023-05-28T14:26:01;25.20;44.40
18717;DHT22;9487;50.892;6.906;2023-05-28T14:28:29;25.50;42.50
18717;DHT22;9487;50.892;6.906;2023-05-28T14:30:56;25.40;42.30
18717;DHT22;9487;50.892;6.906;2023-05-28T14:33:23;25.50;41.30
18717;DHT22;9487;50.892;6.906;2023-05-28T14:35:53;25.50;41.60
18717;DHT22;9487;50.892;6.906;2023-05-28T14:38:22;25.50;39.90
18717;DHT22;9487;50.892;6.906;2023-05-28T14:40:48;25.40;39.50
18717;DHT22;9487;50.892;6.906;2023-05-28T14:43:15;25.50;39.30
18717;DHT22;9487;50.892;6.906;2023-05-28T14:45:42;25.30;39.60
18717;DHT22;9487;50.892;6.906;2023-05-28T14:48:09;25.30;40.90
18717;DHT22;9487;50.892;6.906;2023-05-28T14:50:36;25.20;41.10
18717;DHT22;9487;50.892;6.906;2023-05-28T14:53:02;24.90;40.70
18717;DHT22;9487;50.892;6.906;2023-05-28T14:55:32;24.90;40.80
18717;DHT22;9487;50.892;6.906;2023-05-28T14:57:58;24.80;40.30
18717;DHT22;9487;50.892;6.906;2023-05-28T15:00:25;25.00;40.00
18717;DHT22;9487;50.892;6.906;2023-05-28T15:02:52;25.00;41.20
18717;DHT22;9487;50.892;6.906;2023-05-28T15:05:19;25.10;40.80
18717;DHT22;9487;50.892;6.906;2023-05-28T15:07:47;25.20;41.40
18717;DHT22;9487;50.892;6.906;2023-05-28T15:10:14;25.20;40.70
18717;DHT22;9487;50.892;6.906;2023-05-28T15:12:42;25.20;40.90
18717;DHT22;9487;50.892;6.906;2023-05-28T15:15:09;25.30;40.20
18717;DHT22;9487;50.892;6.906;2023-05-28T15:17:36;25.30;40.40
18717;DHT22;9487;50.892;6.906;2023-05-28T15:20:03;25.20;39.90
18717;DHT22;9487;50.892;6.906;2023-05-28T15:22:30;25.20;41.10
18717;DHT22;9487;50.892;6.906;2023-05-28T15:24:57;25.20;41.40
18717;DHT22;9487;50.892;6.906;2023-05-28T15:27:24;25.00;42.00
18717;DHT22;9487;50.892;6.906;2023-05-28T15:29:53;24.90;44.10
18717;DHT22;9487;50.892;6.906;2023-05-28T15:32:20;24.80;44.60
18717;DHT22;9487;50.892;6.906;2023-05-28T15:34:47;24.90;45.30
18717;DHT22;9487;50.892;6.906;2023-05-28T15:37:15;25.00;46.20
18717;DHT22;9487;50.892;6.906;2023-05-28T15:39:42;24.70;46.10
18717;DHT22;9487;50.892;6.906;2023-05-28T15:42:09;24.80;46.70
18717;DHT22;9487;50.892;6.906;2023-05-28T15:44:37;24.60;46.00
18717;DHT22;9487;50.892;6.906;2023-05-28T15:47:06;24.50;46.80
18717;DHT22;9487;50.892;6.906;2023-05-28T15:49:33;24.50;46.80
18717;DHT22;9487;50.892;6.906;2023-05-28T15:52:00;24.70;47.00
18717;DHT22;9487;50.892;6.906;2023-05-28T15:54:27;24.70;46.10